Aviation Digital Data Service (ADDS)

Output produced by METARs form (1750 UTC 27 May 2015)
found at http://aviationweather.gov/adds/metars/
 
KMSS 271738Z 2718/2818 23016G24KT P6SM VCSH SCT030 BKN060 
     FM272100 24014G24KT P6SM SCT060 BKN100 
     FM280000 22008KT P6SM SCT080 SCT120 
     FM280600 22011KT P6SM VCSH BKN040 
     FM281400 23012G20KT P6SM OVC010